Nearby METAR Reports

 

LEVC - Valencia (civ/Mi, Spain
Distacia desde Piles: NO 69km
Actu.: 19/01/2018 20:00
Despejado
Despejado
 Viento del varies
Viento: varies 2 km/h
Temperatura: 12°C
Rocío: 7°C
Humedad: 72%
Barómetro: 1020 hPa
Resumen: Despejado
Visibility: greater than 10 km
2018/01/19 19:00 LEVC 191900Z VRB01KT CAVOK 12/07 Q1020 NOSIG
LEAL - Alicante/El Alte, Spain
Distacia desde Piles: SSO 94km
Actu.: 19/01/2018 20:00
Despejado
Despejado
 Viento del O
Viento: O 9 km/h
Temperatura: 10°C
Wind Chill: 9°C
Rocío: 8°C
Humedad: 88%
Barómetro: 1020 hPa
Resumen: Despejado
Visibility: greater than 10 km
2018/01/19 19:00 LEAL 191900Z 26005KT CAVOK 10/08 Q1020 NOSIG
 
LEIB - Ibiza/Es Codola, Spain
Distacia desde Piles: E 119km
Actu.: 19/01/2018 20:00
Despejado
Despejado
 Viento del varies
Viento: varies 4 km/h
Temperatura: 10°C
Rocío: 8°C
Humedad: 88%
Barómetro: 1020 hPa
Resumen: Despejado
Visibility: greater than 10 km
2018/01/19 19:00 LEIB 191900Z VRB02KT CAVOK 10/08 Q1020 NOSIG
LELC - San Javier(Mil/C, Spain
Distacia desde Piles: SSO 154km
Actu.: 19/01/2018 20:00
Despejado
Despejado
 Viento del OSO
Viento: OSO 9 km/h
Temperatura: 11°C
Rocío: 9°C
Humedad: 88%
Barómetro: 1021 hPa
Resumen: Despejado
Visibility: greater than 10 km
2018/01/19 19:00 LELC 191900Z 25005KT CAVOK 11/09 Q1021 NOSIG
 
LERI - Alcantarilla(Sp-, Spain
Distacia desde Piles: SO 158km
Actu.: 19/01/2018 19:00
Despejado
Despejado
 Viento del O
Viento: O 4 km/h
Temperatura: 11°C
Rocío: 7°C
Humedad: 77%
Barómetro: 1020 hPa
Resumen: Despejado
Visibility: greater than 10 km
2018/01/19 18:00 LERI 191800Z 28002KT CAVOK 11/07 Q1020 NOSIG
LEAB - Albacete (civ/Mi, Spain
Distacia desde Piles: O 160km
Actu.: 19/01/2018 20:00
Despejado
Despejado
 Viento del OSO
Viento: OSO 11 km/h
Temperatura: 8°C
Wind Chill: 6°C
Rocío: 2°C
Humedad: 66%
Barómetro: 1022 hPa
Resumen: Despejado
Visibility: greater than 10 km
2018/01/19 19:00 LEAB 191900Z 24006KT CAVOK 08/02 Q1022 NOSIG